createdAt,value
2019-05-30T00:00:55.843Z,101857.66
2019-05-30T00:03:27.884Z,101857.58
2019-05-30T00:06:00.528Z,101857.33
2019-05-30T00:08:32.648Z,101859.16
2019-05-30T00:11:04.867Z,101865.55
2019-05-30T00:13:36.889Z,101869.39
2019-05-30T00:16:09.461Z,101872.17
2019-05-30T00:18:41.579Z,101877.05
2019-05-30T00:21:13.610Z,101873.80
2019-05-30T00:23:45.514Z,101874.98
2019-05-30T00:26:17.535Z,101868.67
2019-05-30T00:28:49.588Z,101878.48
2019-05-30T00:31:21.601Z,101886.53
2019-05-30T00:33:53.643Z,101874.95
2019-05-30T00:36:25.986Z,101887.45
2019-05-30T00:38:57.972Z,101880.16
2019-05-30T00:41:29.924Z,101882.94
2019-05-30T00:44:02.158Z,101890.78
2019-05-30T00:46:34.360Z,101891.04
2019-05-30T00:49:06.687Z,101891.88
2019-05-30T00:51:38.681Z,101896.73
2019-05-30T00:54:10.661Z,101894.66
2019-05-30T00:56:42.457Z,101886.52
2019-05-30T00:59:14.355Z,101883.53
2019-05-30T01:01:46.135Z,101885.65
2019-05-30T01:04:18.365Z,101884.08
2019-05-30T01:06:50.154Z,101878.31
2019-05-30T01:09:22.061Z,101884.19
2019-05-30T01:11:54.051Z,101883.56
2019-05-30T01:14:25.961Z,101877.55
2019-05-30T01:16:59.047Z,101877.91
2019-05-30T01:19:31.050Z,101880.06
2019-05-30T01:22:05.400Z,101867.84
2019-05-30T01:24:37.434Z,101878.09
2019-05-30T01:27:09.370Z,101876.55
2019-05-30T01:29:41.349Z,101876.30
2019-05-30T01:32:29.098Z,101875.27
2019-05-30T01:35:02.074Z,101870.92
2019-05-30T01:37:37.296Z,101869.47
2019-05-30T01:40:10.614Z,101868.70
2019-05-30T01:42:42.554Z,101872.92
2019-05-30T01:45:14.949Z,101874.23
2019-05-30T01:47:46.730Z,101875.17
2019-05-30T01:50:18.808Z,101877.94
2019-05-30T01:52:50.769Z,101881.63
2019-05-30T01:55:22.824Z,101879.22
2019-05-30T01:57:54.834Z,101889.45
2019-05-30T02:00:38.957Z,101884.61
2019-05-30T02:03:11.057Z,101888.97
2019-05-30T02:05:43.039Z,101881.22
2019-05-30T02:08:14.980Z,101878.88
2019-05-30T02:10:47.036Z,101881.51
2019-05-30T02:13:19.003Z,101878.63
2019-05-30T02:15:51.095Z,101874.16
2019-05-30T02:18:23.065Z,101882.03
2019-05-30T02:20:54.969Z,101875.87
2019-05-30T02:23:27.076Z,101882.67
2019-05-30T02:26:00.104Z,101884.54
2019-05-30T02:28:32.251Z,101883.21
2019-05-30T02:31:05.338Z,101892.66
2019-05-30T02:33:37.737Z,101889.01
2019-05-30T02:36:12.577Z,101892.03
2019-05-30T02:38:44.874Z,101891.36
2019-05-30T02:41:17.107Z,101893.44
2019-05-30T02:43:49.211Z,101900.80
2019-05-30T02:46:21.100Z,101907.88
2019-05-30T02:48:58.992Z,101904.34
2019-05-30T02:51:26.578Z,101908.67
2019-05-30T02:53:58.530Z,101905.91
2019-05-30T02:56:30.769Z,101910.52
2019-05-30T02:59:03.870Z,101909.59
2019-05-30T03:01:36.470Z,101906.84
2019-05-30T03:04:10.237Z,101912.08
2019-05-30T03:06:42.428Z,101912.34
2019-05-30T03:09:14.410Z,101916.28
2019-05-30T03:11:46.890Z,101917.06
2019-05-30T03:14:19.949Z,101922.20
2019-05-30T03:16:52.268Z,101920.23
2019-05-30T03:19:24.231Z,101917.06
2019-05-30T03:21:56.270Z,101924.02
2019-05-30T03:24:28.195Z,101917.21
2019-05-30T03:27:00.226Z,101916.39
2019-05-30T03:29:32.213Z,101921.00
2019-05-30T03:32:38.987Z,101924.53
2019-05-30T03:34:37.848Z,101923.62
2019-05-30T03:37:21.456Z,101931.24
2019-05-30T03:39:43.483Z,101928.07
2019-05-30T03:42:16.107Z,101927.94
2019-05-30T03:44:48.216Z,101921.38
2019-05-30T03:47:22.086Z,101924.38
2019-05-30T03:49:56.232Z,101923.08
2019-05-30T03:52:29.076Z,101926.45
2019-05-30T03:55:01.282Z,101922.80
2019-05-30T03:57:43.164Z,101920.67
2019-05-30T04:00:37.367Z,101923.78
2019-05-30T04:03:31.858Z,101923.92
2019-05-30T04:06:10.143Z,101920.36
2019-05-30T04:08:43.849Z,101927.30
2019-05-30T04:11:29.633Z,101931.86
2019-05-30T04:14:06.805Z,101928.03
2019-05-30T04:16:38.596Z,101925.77
2019-05-30T04:19:12.356Z,101935.07
2019-05-30T04:21:43.996Z,101927.80
2019-05-30T04:24:16.498Z,101929.61
2019-05-30T04:26:48.507Z,101934.52
2019-05-30T04:29:20.556Z,101926.61
2019-05-30T04:31:52.426Z,101925.09
2019-05-30T04:34:24.258Z,101930.70
2019-05-30T04:36:56.132Z,101934.98
2019-05-30T04:39:28.692Z,101939.02
2019-05-30T04:42:00.576Z,101930.63
2019-05-30T04:44:32.494Z,101933.27
2019-05-30T04:47:23.024Z,101939.94
2019-05-30T04:49:56.012Z,101945.32
2019-05-30T04:52:27.978Z,101952.14
2019-05-30T04:54:59.891Z,101943.37
2019-05-30T04:57:31.865Z,101946.74
2019-05-30T05:00:05.504Z,101946.23
2019-05-30T05:02:37.872Z,101954.71
2019-05-30T05:05:11.360Z,101949.59
2019-05-30T05:07:43.390Z,101948.80
2019-05-30T05:10:20.425Z,101942.86
2019-05-30T05:12:52.845Z,101953.19
2019-05-30T05:15:24.855Z,101954.16
2019-05-30T05:17:56.789Z,101947.42
2019-05-30T05:20:28.841Z,101943.33
2019-05-30T05:23:01.048Z,101945.29
2019-05-30T05:25:33.086Z,101947.16
2019-05-30T05:28:05.071Z,101948.92
2019-05-30T05:30:37.124Z,101955.05
2019-05-30T05:33:09.006Z,101957.39
2019-05-30T05:35:40.963Z,101964.52
2019-05-30T05:38:12.949Z,101966.88
2019-05-30T05:40:45.082Z,101968.23
2019-05-30T05:43:18.593Z,101969.38
2019-05-30T05:45:51.777Z,101964.75
2019-05-30T05:48:24.724Z,101966.80
2019-05-30T05:50:56.861Z,101969.97
2019-05-30T05:53:29.087Z,101969.47
2019-05-30T05:56:01.340Z,101966.95
2019-05-30T05:58:33.396Z,101964.32
2019-05-30T06:01:07.515Z,101966.03
2019-05-30T06:03:39.955Z,101960.87
2019-05-30T06:06:11.940Z,101967.16
2019-05-30T06:08:44.791Z,101962.28
2019-05-30T06:11:16.735Z,101960.14
2019-05-30T06:13:48.976Z,101965.63
2019-05-30T06:16:21.998Z,101964.68
2019-05-30T06:18:54.011Z,101964.47
2019-05-30T06:21:27.483Z,101967.60
2019-05-30T06:23:59.462Z,101971.75
2019-05-30T06:26:31.515Z,101966.44
2019-05-30T06:29:03.761Z,101970.02
2019-05-30T06:31:35.904Z,101964.36
2019-05-30T06:34:07.907Z,101967.19
2019-05-30T06:36:41.185Z,101964.93
2019-05-30T06:39:13.133Z,101963.16
2019-05-30T06:41:45.103Z,101970.88
2019-05-30T06:44:16.882Z,101974.07
2019-05-30T06:46:48.650Z,101967.92
2019-05-30T06:49:20.678Z,101971.77
2019-05-30T06:51:52.731Z,101973.52
2019-05-30T06:54:25.906Z,101975.75
2019-05-30T06:56:58.718Z,101976.02
2019-05-30T06:59:31.727Z,101974.66
2019-05-30T07:02:03.884Z,101976.19
2019-05-30T07:04:50.870Z,101968.39
2019-05-30T07:07:09.547Z,101969.14
2019-05-30T07:09:41.576Z,101974.80
2019-05-30T07:12:13.496Z,101963.59
2019-05-30T07:14:45.497Z,101969.37
2019-05-30T07:17:17.711Z,101963.94
2019-05-30T07:19:49.721Z,101968.77
2019-05-30T07:22:21.710Z,101965.86
2019-05-30T07:24:53.599Z,101967.97
2019-05-30T07:27:26.096Z,101962.51
2019-05-30T07:29:58.175Z,101956.20
2019-05-30T07:32:32.160Z,101955.83
2019-05-30T07:35:07.688Z,101958.14
2019-05-30T07:37:39.905Z,101966.91
2019-05-30T07:40:12.603Z,101959.70
2019-05-30T07:42:44.581Z,101956.15
2019-05-30T07:45:17.505Z,101965.26
2019-05-30T07:47:49.577Z,101966.59
2019-05-30T07:50:21.951Z,101963.92
2019-05-30T07:52:53.850Z,101969.56
2019-05-30T07:55:26.850Z,101973.95
2019-05-30T07:57:59.038Z,101974.47
2019-05-30T08:00:33.486Z,101971.87
2019-05-30T08:03:04.757Z,101971.18
2019-05-30T08:05:36.717Z,101973.67
2019-05-30T08:08:08.699Z,101970.03
2019-05-30T08:10:40.594Z,101969.45
2019-05-30T08:13:12.578Z,101965.30
2019-05-30T08:15:44.467Z,101964.77
2019-05-30T08:18:16.307Z,101964.91
2019-05-30T08:20:48.239Z,101964.09
2019-05-30T08:23:20.171Z,101967.19
2019-05-30T08:25:52.185Z,101965.70
2019-05-30T08:28:24.082Z,101963.45
2019-05-30T08:30:56.972Z,101958.22
2019-05-30T08:33:29.548Z,101947.41
2019-05-30T08:36:05.481Z,101961.20
2019-05-30T08:38:37.340Z,101960.77
2019-05-30T08:41:09.497Z,101956.41
2019-05-30T08:43:41.478Z,101963.72
2019-05-30T08:46:15.808Z,101953.61
2019-05-30T08:48:48.148Z,101952.27
2019-05-30T08:51:20.024Z,101951.10
2019-05-30T08:53:51.935Z,101948.09
2019-05-30T08:56:23.737Z,101952.95
2019-05-30T08:58:55.651Z,101951.56
2019-05-30T09:01:27.632Z,101947.19
2019-05-30T09:03:59.544Z,101945.48
2019-05-30T09:06:32.503Z,101943.38
2019-05-30T09:09:06.377Z,101944.33
2019-05-30T09:11:39.290Z,101944.33
2019-05-30T09:14:13.102Z,101934.48
2019-05-30T09:16:46.499Z,101936.52
2019-05-30T09:19:18.847Z,101933.76
2019-05-30T09:21:51.985Z,101930.61
2019-05-30T09:24:23.982Z,101933.00
2019-05-30T09:26:57.084Z,101930.33
2019-05-30T09:29:29.080Z,101925.66
2019-05-30T09:32:01.014Z,101929.42
2019-05-30T09:34:33.067Z,101914.97
2019-05-30T09:37:04.998Z,101922.05
2019-05-30T09:39:36.917Z,101920.90
2019-05-30T09:42:08.845Z,101925.61
2019-05-30T09:44:42.189Z,101918.83
2019-05-30T09:47:14.219Z,101926.03
2019-05-30T09:49:46.569Z,101912.13
2019-05-30T09:52:18.595Z,101912.04
2019-05-30T09:54:50.587Z,101911.94
2019-05-30T09:57:22.451Z,101908.11
2019-05-30T09:59:54.364Z,101912.48
2019-05-30T10:02:26.539Z,101905.75
2019-05-30T10:04:58.504Z,101912.17
2019-05-30T10:07:30.552Z,101901.84
2019-05-30T10:10:03.975Z,101911.53
2019-05-30T10:12:35.983Z,101908.13
2019-05-30T10:15:12.026Z,101906.91
2019-05-30T10:17:44.669Z,101907.27
2019-05-30T10:20:18.794Z,101907.52
2019-05-30T10:22:52.432Z,101902.56
2019-05-30T10:25:24.855Z,101898.22
2019-05-30T10:27:57.787Z,101891.97
2019-05-30T10:30:30.553Z,101897.67
2019-05-30T10:33:02.378Z,101896.30
2019-05-30T10:35:34.420Z,101897.67
2019-05-30T10:38:06.708Z,101899.69
2019-05-30T10:40:38.658Z,101894.73
2019-05-30T10:43:18.908Z,101883.88
2019-05-30T10:45:57.529Z,101890.33
2019-05-30T10:48:30.357Z,101884.03
2019-05-30T10:51:02.744Z,101885.05
2019-05-30T10:53:37.402Z,101886.48
2019-05-30T10:56:08.538Z,101885.01
2019-05-30T10:58:40.612Z,101874.34
2019-05-30T11:01:12.581Z,101871.52
2019-05-30T11:03:44.592Z,101876.38
2019-05-30T11:06:21.118Z,101876.16
2019-05-30T11:08:54.879Z,101873.38
2019-05-30T11:11:26.835Z,101874.31
2019-05-30T11:13:58.785Z,101878.00
2019-05-30T11:16:30.790Z,101859.91
2019-05-30T11:19:07.309Z,101867.50
2019-05-30T11:21:36.370Z,101858.48
2019-05-30T11:24:08.412Z,101853.78
2019-05-30T11:26:40.393Z,101852.37
2019-05-30T11:29:12.360Z,101851.13
2019-05-30T11:31:44.350Z,101849.44
2019-05-30T11:34:16.283Z,101848.08
2019-05-30T11:36:48.970Z,101845.95
2019-05-30T11:39:21.025Z,101837.70
2019-05-30T11:41:53.283Z,101833.05
2019-05-30T11:44:25.316Z,101838.35
2019-05-30T11:46:57.768Z,101835.59
2019-05-30T11:49:29.769Z,101835.57
2019-05-30T11:52:01.610Z,101829.22
2019-05-30T11:54:34.346Z,101821.62
2019-05-30T11:57:07.385Z,101820.84
2019-05-30T11:59:39.268Z,101825.16
2019-05-30T12:02:11.284Z,101814.66
2019-05-30T12:04:43.407Z,101826.59
2019-05-30T12:07:15.501Z,101815.50
2019-05-30T12:09:48.470Z,101819.30
2019-05-30T12:12:20.640Z,101816.55
2019-05-30T12:14:53.314Z,101804.30
2019-05-30T12:17:25.453Z,101808.27
2019-05-30T12:19:59.594Z,101805.63
2019-05-30T12:22:31.584Z,101799.14
2019-05-30T12:25:07.330Z,101794.23
2019-05-30T12:27:39.685Z,101788.23
2019-05-30T12:30:12.219Z,101783.88
2019-05-30T12:32:45.330Z,101778.02
2019-05-30T12:35:21.307Z,101778.34
2019-05-30T12:37:58.500Z,101773.92
2019-05-30T12:40:27.535Z,101772.61
2019-05-30T12:43:01.040Z,101767.62
2019-05-30T12:45:33.264Z,101762.35
2019-05-30T12:48:05.242Z,101769.14
2019-05-30T12:50:37.115Z,101767.30
2019-05-30T12:53:09.171Z,101772.52
2019-05-30T12:55:41.061Z,101765.37
2019-05-30T12:58:13.178Z,101766.27
2019-05-30T13:00:45.504Z,101755.52
2019-05-30T13:03:17.489Z,101755.89
2019-05-30T13:05:49.431Z,101760.95
2019-05-30T13:08:22.203Z,101757.75
2019-05-30T13:10:55.523Z,101761.52
2019-05-30T13:13:27.682Z,101752.81
2019-05-30T13:16:01.064Z,101755.82
2019-05-30T13:18:33.425Z,101747.32
2019-05-30T13:21:06.328Z,101748.33
2019-05-30T13:23:38.924Z,101754.67
2019-05-30T13:26:10.850Z,101751.63
2019-05-30T13:28:42.979Z,101749.22
2019-05-30T13:31:15.869Z,101741.80
2019-05-30T13:33:47.852Z,101740.10
2019-05-30T13:36:19.661Z,101739.17
2019-05-30T13:38:51.504Z,101738.84
2019-05-30T13:41:23.531Z,101736.47
2019-05-30T13:43:55.434Z,101741.27
2019-05-30T13:46:27.340Z,101733.36
2019-05-30T13:49:00.795Z,101721.81
2019-05-30T13:51:32.855Z,101728.91
2019-05-30T13:54:05.282Z,101720.64
2019-05-30T13:56:37.273Z,101720.78
2019-05-30T13:59:10.111Z,101727.12
2019-05-30T14:01:42.197Z,101720.28
2019-05-30T14:04:14.278Z,101716.64
2019-05-30T14:06:46.226Z,101714.09
2019-05-30T14:09:19.047Z,101715.47
2019-05-30T14:11:50.982Z,101715.44
2019-05-30T14:14:24.087Z,101712.50
2019-05-30T14:16:56.222Z,101711.37
2019-05-30T14:19:28.068Z,101719.19
2019-05-30T14:22:01.057Z,101716.55
2019-05-30T14:24:35.555Z,101717.91
2019-05-30T14:27:07.650Z,101718.51
2019-05-30T14:29:40.609Z,101713.55
2019-05-30T14:32:12.632Z,101714.48
2019-05-30T14:34:44.546Z,101712.83
2019-05-30T14:37:16.333Z,101711.09
2019-05-30T14:39:48.584Z,101713.58
2019-05-30T14:42:20.537Z,101709.19
2019-05-30T14:44:52.514Z,101707.16
2019-05-30T14:47:24.691Z,101712.45
2019-05-30T14:49:56.686Z,101710.24
2019-05-30T14:52:28.949Z,101712.34
2019-05-30T14:55:02.026Z,101711.23
2019-05-30T14:57:34.128Z,101714.83
2019-05-30T15:00:13.596Z,101707.52
2019-05-30T15:02:46.153Z,101708.82
2019-05-30T15:05:18.554Z,101717.21
2019-05-30T15:07:50.589Z,101709.16
2019-05-30T15:10:22.513Z,101700.27
2019-05-30T15:12:55.371Z,101701.30
2019-05-30T15:15:27.346Z,101703.20
2019-05-30T15:17:59.169Z,101696.52
2019-05-30T15:20:31.215Z,101702.73
2019-05-30T15:23:03.165Z,101703.78
2019-05-30T15:25:35.091Z,101693.55
2019-05-30T15:28:07.967Z,101698.59
2019-05-30T15:30:40.024Z,101701.30
2019-05-30T15:33:12.658Z,101697.73
2019-05-30T15:35:45.684Z,101693.22
2019-05-30T15:38:17.578Z,101690.52
2019-05-30T15:40:49.499Z,101689.58
2019-05-30T15:43:21.455Z,101692.27
2019-05-30T15:45:53.436Z,101691.37
2019-05-30T15:48:25.312Z,101681.89
2019-05-30T15:50:57.301Z,101686.87
2019-05-30T15:53:29.406Z,101689.08
2019-05-30T15:56:01.729Z,101687.17
2019-05-30T15:58:33.761Z,101688.64
2019-05-30T16:01:09.810Z,101680.96
2019-05-30T16:03:43.689Z,101679.61
2019-05-30T16:06:16.549Z,101680.13
2019-05-30T16:08:48.518Z,101671.08
2019-05-30T16:11:21.261Z,101670.75
2019-05-30T16:13:53.304Z,101653.30
2019-05-30T16:16:38.914Z,101652.83
2019-05-30T16:19:14.789Z,101657.52
2019-05-30T16:21:33.615Z,101653.76
2019-05-30T16:24:07.050Z,101660.17
2019-05-30T16:26:39.373Z,101672.84
2019-05-30T16:29:11.342Z,101675.33
2019-05-30T16:31:43.185Z,101667.97
2019-05-30T16:34:16.104Z,101658.94
2019-05-30T16:36:48.773Z,101667.25
2019-05-30T16:39:20.647Z,101668.72
2019-05-30T16:41:52.801Z,101665.24
2019-05-30T16:44:24.767Z,101658.36
2019-05-30T16:46:56.752Z,101648.77
2019-05-30T16:49:29.051Z,101657.20
2019-05-30T16:52:00.978Z,101659.30
2019-05-30T16:54:33.021Z,101661.66
2019-05-30T16:57:05.025Z,101642.91
2019-05-30T16:59:36.917Z,101646.53
2019-05-30T17:02:09.389Z,101646.43
2019-05-30T17:04:41.365Z,101638.83
2019-05-30T17:07:13.452Z,101642.46
2019-05-30T17:09:45.403Z,101645.36
2019-05-30T17:12:17.504Z,101650.05
2019-05-30T17:14:49.564Z,101646.92
2019-05-30T17:17:24.195Z,101648.17
2019-05-30T17:19:56.817Z,101654.14
2019-05-30T17:22:30.930Z,101645.64
2019-05-30T17:25:03.831Z,101638.30
2019-05-30T17:27:46.710Z,101644.69
2019-05-30T17:30:21.616Z,101635.53
2019-05-30T17:32:55.143Z,101631.33
2019-05-30T17:35:46.281Z,101631.53
2019-05-30T17:38:26.533Z,101633.00
2019-05-30T17:40:58.535Z,101634.17
2019-05-30T17:43:30.455Z,101623.37
2019-05-30T17:46:02.439Z,101633.37
2019-05-30T17:48:34.573Z,101635.42
2019-05-30T17:51:06.610Z,101631.75
2019-05-30T17:53:38.738Z,101643.14
2019-05-30T17:56:10.796Z,101648.00
2019-05-30T17:58:42.992Z,101644.91
2019-05-30T18:01:14.736Z,101652.06
2019-05-30T18:03:46.717Z,101653.33
2019-05-30T18:06:20.377Z,101647.45
2019-05-30T18:08:52.466Z,101653.48
2019-05-30T18:11:24.947Z,101652.35
2019-05-30T18:13:57.052Z,101649.48
2019-05-30T18:16:29.290Z,101652.58
2019-05-30T18:19:01.296Z,101660.91
2019-05-30T18:21:33.251Z,101668.00
2019-05-30T18:24:05.370Z,101662.18
2019-05-30T18:26:37.317Z,101661.14
2019-05-30T18:29:09.381Z,101674.08
2019-05-30T18:31:41.271Z,101672.53
2019-05-30T18:34:13.049Z,101671.94
2019-05-30T18:36:46.325Z,101676.25
2019-05-30T18:39:18.687Z,101678.97
2019-05-30T18:41:50.654Z,101672.95
2019-05-30T18:44:22.803Z,101669.88
2019-05-30T18:46:54.673Z,101677.13
2019-05-30T18:49:27.140Z,101682.73
2019-05-30T18:51:59.234Z,101680.44
2019-05-30T18:54:31.737Z,101686.02
2019-05-30T18:57:04.913Z,101688.20
2019-05-30T18:59:37.394Z,101684.80
2019-05-30T19:02:10.555Z,101681.30
2019-05-30T19:04:42.539Z,101685.45
2019-05-30T19:07:14.505Z,101688.84
2019-05-30T19:09:46.479Z,101690.02
2019-05-30T19:12:19.436Z,101686.20
2019-05-30T19:14:51.344Z,101688.23
2019-05-30T19:17:23.239Z,101687.31
2019-05-30T19:19:55.240Z,101688.84
2019-05-30T19:22:28.365Z,101687.91
2019-05-30T19:25:00.683Z,101692.34
2019-05-30T19:27:36.401Z,101691.11
2019-05-30T19:30:11.151Z,101693.00
2019-05-30T19:32:42.962Z,101697.46
2019-05-30T19:35:15.926Z,101697.39
2019-05-30T19:38:05.044Z,101692.69
2019-05-30T19:40:39.427Z,101697.30
2019-05-30T19:43:12.874Z,101697.86
2019-05-30T19:45:45.301Z,101702.64
2019-05-30T19:48:17.302Z,101702.27
2019-05-30T19:50:49.220Z,101702.55
2019-05-30T19:53:21.106Z,101703.69
2019-05-30T19:55:53.068Z,101697.75
2019-05-30T19:58:24.966Z,101698.36
2019-05-30T20:00:58.766Z,101701.61
2019-05-30T20:03:38.519Z,101698.80
2019-05-30T20:06:04.257Z,101693.60
2019-05-30T20:08:51.356Z,101696.69
2019-05-30T20:11:09.893Z,101693.80
2019-05-30T20:13:41.946Z,101700.78
2019-05-30T20:16:13.986Z,101703.30
2019-05-30T20:18:45.892Z,101700.27
2019-05-30T20:21:18.588Z,101701.71
2019-05-30T20:23:56.622Z,101701.83
2019-05-30T20:26:24.167Z,101701.98
2019-05-30T20:28:56.051Z,101706.02
2019-05-30T20:31:28.149Z,101700.88
2019-05-30T20:34:00.190Z,101706.23
2019-05-30T20:36:32.177Z,101704.41
2019-05-30T20:39:04.887Z,101704.06
2019-05-30T20:41:36.962Z,101709.23
2019-05-30T20:44:08.856Z,101714.13
2019-05-30T20:46:41.172Z,101708.39
2019-05-30T20:49:13.149Z,101709.39
2019-05-30T20:51:45.118Z,101709.33
2019-05-30T20:54:17.015Z,101714.78
2019-05-30T20:56:51.062Z,101708.57
2019-05-30T20:59:22.597Z,101706.72
2019-05-30T21:01:54.662Z,101706.22
2019-05-30T21:04:26.814Z,101709.19
2019-05-30T21:06:59.313Z,101708.34
2019-05-30T21:09:31.885Z,101714.19
2019-05-30T21:12:05.347Z,101704.48
2019-05-30T21:14:37.421Z,101707.62
2019-05-30T21:17:10.220Z,101703.45
2019-05-30T21:19:42.174Z,101709.52
2019-05-30T21:22:14.168Z,101706.17
2019-05-30T21:24:46.944Z,101704.44
2019-05-30T21:27:19.021Z,101701.94
2019-05-30T21:29:51.049Z,101702.97
2019-05-30T21:32:23.023Z,101701.51
2019-05-30T21:34:54.978Z,101699.02
2019-05-30T21:37:26.952Z,101703.75
2019-05-30T21:39:58.981Z,101708.44
2019-05-30T21:42:31.055Z,101705.80
2019-05-30T21:45:02.866Z,101708.52
2019-05-30T21:47:34.833Z,101698.34
2019-05-30T21:50:07.903Z,101696.23
2019-05-30T21:52:41.326Z,101698.61
2019-05-30T21:55:13.698Z,101699.89
2019-05-30T21:57:46.025Z,101705.41
2019-05-30T22:01:05.805Z,101695.53
2019-05-30T22:03:37.794Z,101698.33
2019-05-30T22:06:09.591Z,101692.43
2019-05-30T22:08:43.003Z,101702.75
2019-05-30T22:11:15.143Z,101694.72
2019-05-30T22:13:47.690Z,101699.93
2019-05-30T22:16:19.622Z,101696.29
2019-05-30T22:18:52.206Z,101703.31
2019-05-30T22:21:24.405Z,101711.88
2019-05-30T22:23:56.396Z,101710.15
2019-05-30T22:26:28.495Z,101701.80
2019-05-30T22:29:00.472Z,101703.31
2019-05-30T22:31:32.490Z,101695.02
2019-05-30T22:34:04.455Z,101697.06
2019-05-30T22:36:36.335Z,101696.56
2019-05-30T22:39:09.031Z,101696.23
2019-05-30T22:41:41.042Z,101697.48
2019-05-30T22:44:13.010Z,101695.30
2019-05-30T22:46:46.115Z,101693.15
2019-05-30T22:49:18.103Z,101695.73
2019-05-30T22:51:51.109Z,101691.49
2019-05-30T22:54:23.149Z,101698.32
2019-05-30T22:56:55.755Z,101694.87
2019-05-30T22:59:27.775Z,101697.59
2019-05-30T23:01:59.735Z,101692.92
2019-05-30T23:04:31.837Z,101694.95
2019-05-30T23:07:04.035Z,101693.05
2019-05-30T23:09:36.142Z,101698.34
2019-05-30T23:12:08.047Z,101698.42
2019-05-30T23:14:40.083Z,101693.27
2019-05-30T23:17:11.978Z,101695.91
2019-05-30T23:19:44.048Z,101695.22
2019-05-30T23:22:16.042Z,101691.75
2019-05-30T23:24:49.209Z,101695.11
2019-05-30T23:27:21.106Z,101690.03
2019-05-30T23:29:53.921Z,101684.25
2019-05-30T23:32:25.764Z,101686.56
2019-05-30T23:34:58.666Z,101687.80
2019-05-30T23:37:30.522Z,101688.02
2019-05-30T23:40:02.420Z,101684.95
2019-05-30T23:42:34.364Z,101692.39
2019-05-30T23:45:10.227Z,101685.17
2019-05-30T23:47:42.039Z,101687.83
2019-05-30T23:50:13.937Z,101686.72
2019-05-30T23:52:45.821Z,101688.05
2019-05-30T23:55:17.719Z,101688.95
2019-05-30T23:57:50.357Z,101684.70
